Time;durP1;ratioP1;P1;durP2;ratioP2;P2;SDS_P1;SDS_P2;PMS_P1;PMS_P2;Temp;Humidity;BMP_temperature;BMP_pressure;BME280_temperature;BME280_humidity;BME280_pressure;Samples;Min_cycle;Max_cycle;Signal;HPM_P1;HPM_P2
2022/06/30 00:00:36;;;;;;;6.13;4.37;;;20.70;99.90;;;;;;4138798;28;20497;-79
2022/06/30 00:02:38;;;;;;;6.17;4.90;;;20.70;99.90;;;;;;4138257;28;20325;-79
2022/06/30 00:04:41;;;;;;;5.90;4.63;;;20.70;99.90;;;;;;4141819;28;20660;-78
2022/06/30 00:06:43;;;;;;;8.40;5.30;;;20.70;99.90;;;;;;4142434;28;20299;-77
2022/06/30 00:08:45;;;;;;;5.67;4.87;;;20.60;99.90;;;;;;4143038;28;20346;-78
2022/06/30 00:10:47;;;;;;;5.60;4.60;;;20.60;99.90;;;;;;4141328;28;20231;-79
2022/06/30 00:12:49;;;;;;;5.60;4.60;;;20.60;99.90;;;;;;4135581;28;20287;-79
2022/06/30 00:14:51;;;;;;;5.53;4.30;;;20.60;99.90;;;;;;4142954;28;20218;-78
2022/06/30 00:16:53;;;;;;;5.57;4.77;;;20.60;99.90;;;;;;4138557;28;20242;-79
2022/06/30 00:18:55;;;;;;;5.57;4.93;;;20.60;99.90;;;;;;4139067;28;20231;-79
2022/06/30 00:20:59;;;;;;;5.57;4.73;;;20.60;99.90;;;;;;4136523;28;20325;-79
2022/06/30 00:23:01;;;;;;;5.63;4.57;;;20.60;99.90;;;;;;4143410;28;20210;-79
2022/06/30 00:25:04;;;;;;;6.20;4.50;;;20.60;99.90;;;;;;4140323;28;20656;-79
2022/06/30 00:27:07;;;;;;;5.57;4.43;;;20.60;99.90;;;;;;4143963;28;20246;-79
2022/06/30 00:29:08;;;;;;;4.60;4.03;;;20.60;99.90;;;;;;4143408;28;20626;-79
2022/06/30 00:31:10;;;;;;;6.33;4.40;;;20.60;99.90;;;;;;4142806;28;20892;-79
2022/06/30 00:33:12;;;;;;;4.60;4.10;;;20.60;99.90;;;;;;4145090;28;20664;-78
2022/06/30 00:35:14;;;;;;;4.87;4.13;;;20.60;99.90;;;;;;4140667;28;20228;-78
2022/06/30 00:37:17;;;;;;;5.27;4.50;;;20.60;99.90;;;;;;4141115;28;20580;-78
2022/06/30 00:39:20;;;;;;;6.37;4.60;;;20.60;99.90;;;;;;4144477;28;20204;-79
2022/06/30 00:41:22;;;;;;;4.90;4.30;;;20.60;99.90;;;;;;4142289;28;20274;-78
2022/06/30 00:43:24;;;;;;;4.83;4.27;;;20.50;99.90;;;;;;4140195;28;20289;-78
2022/06/30 00:45:26;;;;;;;4.90;4.00;;;20.50;99.90;;;;;;4138873;28;20204;-79
2022/06/30 00:47:28;;;;;;;5.20;4.33;;;20.50;99.90;;;;;;4137648;28;20210;-79
2022/06/30 00:49:30;;;;;;;5.73;4.60;;;20.50;99.90;;;;;;4141897;28;20316;-80
2022/06/30 00:51:32;;;;;;;5.87;5.03;;;20.50;99.90;;;;;;4139490;28;20217;-79
2022/06/30 00:53:38;;;;;;;6.07;4.93;;;20.50;99.90;;;;;;4144218;28;20210;-78
2022/06/30 00:55:40;;;;;;;6.63;4.80;;;20.50;99.90;;;;;;4144091;28;20253;-79
2022/06/30 00:57:43;;;;;;;4.77;4.10;;;20.50;99.90;;;;;;4147564;28;20236;-78
2022/06/30 00:59:48;;;;;;;5.73;4.50;;;20.50;99.90;;;;;;4150606;28;20281;-79
2022/06/30 01:01:51;;;;;;;5.17;4.20;;;20.50;99.90;;;;;;4152022;28;20257;-80
2022/06/30 01:03:55;;;;;;;4.50;4.10;;;20.50;99.90;;;;;;4154331;28;20209;-79
2022/06/30 01:05:57;;;;;;;5.27;4.47;;;20.50;99.90;;;;;;4153654;28;20219;-80
2022/06/30 01:08:01;;;;;;;4.83;4.20;;;20.40;99.90;;;;;;4142606;28;20246;-78
2022/06/30 01:12:45;;;;;;;4.87;4.37;;;20.40;99.90;;;;;;4093203;28;20217;-81
2022/06/30 01:14:48;;;;;;;4.73;4.10;;;20.40;99.90;;;;;;4140620;28;20244;-79
2022/06/30 01:16:50;;;;;;;6.13;4.60;;;20.40;99.90;;;;;;4140145;28;20271;-78
2022/06/30 01:18:52;;;;;;;5.10;4.37;;;20.40;99.90;;;;;;4143064;28;20268;-78
2022/06/30 01:20:54;;;;;;;5.10;4.40;;;20.40;99.90;;;;;;4141470;28;20233;-79
2022/06/30 01:22:58;;;;;;;5.47;4.40;;;20.40;99.90;;;;;;4141863;28;20242;-78
2022/06/30 01:25:00;;;;;;;5.80;4.63;;;20.50;99.90;;;;;;4140214;28;20398;-78
2022/06/30 01:27:02;;;;;;;5.97;4.37;;;20.40;99.90;;;;;;4143091;28;20671;-78
2022/06/30 01:29:06;;;;;;;5.27;4.37;;;20.40;99.90;;;;;;4143755;28;20258;-78
2022/06/30 01:31:08;;;;;;;5.17;4.63;;;20.40;99.90;;;;;;4166903;23;20241;-82
2022/06/30 01:33:10;;;;;;;5.00;4.17;;;20.40;99.90;;;;;;4187909;28;20725;-82
2022/06/30 01:35:12;;;;;;;5.17;4.40;;;20.40;99.90;;;;;;4182910;28;20313;-83
2022/06/30 01:37:14;;;;;;;6.00;4.50;;;20.40;99.90;;;;;;4186677;28;20295;-83
2022/06/30 01:39:18;;;;;;;5.97;4.80;;;20.40;99.90;;;;;;4184911;28;20297;-82
2022/06/30 01:41:19;;;;;;;5.33;4.63;;;20.40;99.90;;;;;;4185274;28;20237;-82
2022/06/30 01:43:21;;;;;;;5.80;4.63;;;20.40;99.90;;;;;;4189602;28;20679;-82
2022/06/30 01:45:24;;;;;;;5.47;4.47;;;20.40;99.90;;;;;;4188480;28;20205;-82
2022/06/30 01:47:26;;;;;;;5.40;4.50;;;20.40;99.90;;;;;;4189208;28;20296;-82
2022/06/30 01:49:28;;;;;;;5.27;4.50;;;20.30;99.90;;;;;;4189191;28;20225;-83
2022/06/30 01:51:30;;;;;;;5.67;4.43;;;20.30;99.90;;;;;;4190116;28;20256;-82
2022/06/30 01:53:32;;;;;;;6.17;4.03;;;20.30;99.90;;;;;;4194025;28;20724;-82
2022/06/30 01:55:35;;;;;;;4.93;4.43;;;20.30;99.90;;;;;;4186502;28;20249;-82
2022/06/30 01:57:38;;;;;;;5.30;4.37;;;20.30;99.90;;;;;;4192179;28;20205;-82
2022/06/30 01:59:40;;;;;;;5.03;4.53;;;20.20;99.90;;;;;;4196138;28;20224;-82
2022/06/30 02:01:42;;;;;;;5.57;4.30;;;20.20;99.90;;;;;;4187901;28;20269;-82
2022/06/30 02:03:44;;;;;;;6.40;4.50;;;20.20;99.90;;;;;;4190056;28;20268;-82
2022/06/30 02:05:46;;;;;;;5.33;4.70;;;20.20;99.90;;;;;;4195653;28;20201;-82
2022/06/30 02:07:48;;;;;;;5.07;4.17;;;20.20;99.90;;;;;;4193657;28;20244;-82
2022/06/30 02:09:52;;;;;;;4.87;4.37;;;20.30;99.90;;;;;;4196641;28;20525;-83
2022/06/30 02:14:11;;;;;;;4.13;3.70;;;20.10;99.90;;;;;;4190451;28;20216;-82
2022/06/30 02:16:13;;;;;;;4.47;3.90;;;20.20;99.90;;;;;;4191797;28;20308;-83
2022/06/30 02:18:15;;;;;;;5.13;4.07;;;20.20;99.90;;;;;;4188811;28;20243;-83
2022/06/30 02:20:21;;;;;;;4.33;3.87;;;20.20;99.90;;;;;;4191276;28;20301;-83
2022/06/30 02:22:22;;;;;;;4.83;3.90;;;20.10;99.90;;;;;;4188791;28;20218;-82
2022/06/30 02:24:25;;;;;;;4.23;3.83;;;20.10;99.90;;;;;;4194318;28;20368;-82
2022/06/30 02:26:26;;;;;;;5.40;4.27;;;20.10;99.90;;;;;;4197452;28;20219;-82
2022/06/30 02:28:30;;;;;;;4.60;3.80;;;20.10;99.90;;;;;;4191851;28;20218;-82
2022/06/30 02:30:32;;;;;;;4.17;3.77;;;20.10;99.90;;;;;;4189270;28;20665;-82
2022/06/30 02:32:34;;;;;;;6.30;4.30;;;20.10;99.90;;;;;;4194432;28;20208;-83
2022/06/30 02:34:36;;;;;;;4.73;3.90;;;20.10;99.90;;;;;;4187566;28;20213;-82
2022/06/30 02:36:38;;;;;;;4.10;3.40;;;20.10;99.90;;;;;;4194385;28;20217;-82
2022/06/30 02:38:40;;;;;;;4.73;4.13;;;20.10;99.90;;;;;;4193868;28;20222;-82
2022/06/30 02:40:41;;;;;;;4.17;3.77;;;20.10;99.90;;;;;;4198993;28;20236;-83
2022/06/30 02:42:43;;;;;;;6.27;4.17;;;20.10;99.90;;;;;;4194937;28;20227;-82
2022/06/30 02:44:47;;;;;;;4.87;3.70;;;20.10;99.90;;;;;;4191719;28;20273;-82
2022/06/30 02:46:50;;;;;;;4.50;3.70;;;20.10;99.90;;;;;;4195535;28;20241;-82
2022/06/30 02:48:51;;;;;;;4.40;4.00;;;20.10;99.90;;;;;;4200885;28;20208;-82
2022/06/30 02:50:53;;;;;;;4.80;4.23;;;20.10;99.90;;;;;;4199278;28;20358;-82
2022/06/30 02:52:57;;;;;;;4.63;4.13;;;20.10;99.90;;;;;;4190430;28;20241;-82
2022/06/30 02:54:59;;;;;;;5.60;4.07;;;20.10;99.90;;;;;;4192990;28;20217;-82
2022/06/30 02:57:05;;;;;;;4.80;4.00;;;20.10;99.90;;;;;;4191560;28;20233;-83
2022/06/30 02:59:08;;;;;;;6.50;4.43;;;20.10;99.90;;;;;;4189822;28;20218;-82
2022/06/30 03:01:11;;;;;;;6.00;4.30;;;20.00;99.90;;;;;;4193066;28;20223;-82
2022/06/30 03:03:13;;;;;;;6.10;4.30;;;20.00;99.90;;;;;;4193804;28;20319;-82
2022/06/30 03:05:15;;;;;;;4.40;3.80;;;20.00;99.90;;;;;;4196349;28;20217;-83
2022/06/30 03:07:18;;;;;;;4.77;4.07;;;20.00;99.90;;;;;;4196926;28;20288;-83
2022/06/30 03:09:20;;;;;;;4.33;3.73;;;20.00;99.90;;;;;;4191508;28;20221;-83
2022/06/30 03:11:22;;;;;;;4.87;4.13;;;20.00;99.90;;;;;;4185742;28;20635;-83
2022/06/30 04:01:26;;;;;;;4.50;3.87;;;19.90;99.90;;;;;;4170288;28;20590;-81
2022/06/30 04:03:28;;;;;;;4.40;4.00;;;19.90;99.90;;;;;;4175535;28;20315;-81
2022/06/30 04:05:30;;;;;;;4.47;3.57;;;19.90;99.90;;;;;;4175102;28;20408;-81
2022/06/30 04:07:32;;;;;;;4.73;4.03;;;19.90;99.90;;;;;;4189190;28;20239;-81
2022/06/30 04:09:34;;;;;;;6.80;4.00;;;19.90;99.90;;;;;;4186684;28;20233;-81
2022/06/30 04:11:36;;;;;;;3.80;3.40;;;19.90;99.90;;;;;;4166841;28;20274;-81
2022/06/30 04:13:38;;;;;;;5.27;3.77;;;19.90;99.90;;;;;;4183865;28;20205;-81
2022/06/30 04:15:40;;;;;;;4.10;3.50;;;19.90;99.90;;;;;;4183883;28;20633;-82
2022/06/30 04:17:43;;;;;;;4.87;3.73;;;19.90;99.90;;;;;;4187126;28;20582;-82
2022/06/30 04:19:45;;;;;;;3.90;3.17;;;19.90;99.90;;;;;;4191744;28;20256;-81
2022/06/30 04:21:47;;;;;;;3.83;3.40;;;19.90;99.90;;;;;;4185403;28;20238;-81
2022/06/30 04:23:49;;;;;;;3.50;3.20;;;19.90;99.90;;;;;;4191127;28;20269;-81
2022/06/30 04:25:51;;;;;;;4.93;3.73;;;20.00;99.90;;;;;;4192608;28;20260;-81
2022/06/30 04:27:57;;;;;;;4.00;3.47;;;20.00;99.90;;;;;;4189684;28;20212;-81
2022/06/30 04:29:59;;;;;;;4.83;3.77;;;20.00;99.90;;;;;;4190166;28;20212;-82
2022/06/30 04:34:25;;;;;;;4.17;3.50;;;20.00;99.90;;;;;;4171088;28;20231;-80
2022/06/30 04:36:27;;;;;;;4.27;3.47;;;20.10;99.90;;;;;;4187647;28;20232;-81
2022/06/30 04:38:29;;;;;;;4.60;3.57;;;20.10;99.90;;;;;;4186490;28;20232;-82
2022/06/30 04:42:51;;;;;;;4.07;3.47;;;20.10;99.90;;;;;;4184323;28;20241;-81
2022/06/30 04:44:53;;;;;;;3.90;3.00;;;20.20;99.90;;;;;;4167815;28;20698;-80
2022/06/30 04:46:55;;;;;;;3.33;3.00;;;20.20;99.90;;;;;;4185776;28;20252;-81
2022/06/30 04:48:57;;;;;;;4.20;3.47;;;20.20;99.90;;;;;;4189130;28;20233;-80
2022/06/30 04:51:00;;;;;;;3.43;2.87;;;20.30;99.90;;;;;;4170973;28;20244;-80
2022/06/30 04:53:02;;;;;;;3.53;3.17;;;20.30;99.90;;;;;;4186730;28;20278;-81
2022/06/30 04:55:05;;;;;;;3.43;3.00;;;20.40;99.90;;;;;;4170282;28;20206;-81
2022/06/30 04:57:07;;;;;;;4.10;3.30;;;20.40;99.90;;;;;;4184871;28;20223;-80
2022/06/30 04:59:09;;;;;;;3.30;2.90;;;20.40;99.90;;;;;;4193537;28;20202;-80
2022/06/30 05:01:12;;;;;;;3.47;3.17;;;20.50;99.90;;;;;;4188636;28;20251;-80
2022/06/30 05:03:14;;;;;;;3.40;2.83;;;20.50;99.90;;;;;;4170311;28;20321;-81
2022/06/30 05:05:16;;;;;;;3.90;3.00;;;20.60;99.90;;;;;;4166761;28;20221;-83
2022/06/30 05:07:21;;;;;;;3.60;3.10;;;20.60;99.90;;;;;;4187155;28;20199;-80
2022/06/30 05:09:23;;;;;;;2.97;2.67;;;20.60;99.90;;;;;;4187369;28;20214;-80
2022/06/30 05:11:25;;;;;;;3.20;2.60;;;20.70;99.90;;;;;;4186145;28;20213;-81
2022/06/30 05:13:27;;;;;;;4.00;3.17;;;20.70;99.90;;;;;;4188799;28;20204;-80
2022/06/30 05:15:32;;;;;;;3.60;2.90;;;20.70;99.90;;;;;;4191062;28;20676;-80
2022/06/30 05:17:34;;;;;;;3.20;2.83;;;20.80;99.90;;;;;;4171566;28;20282;-81
2022/06/30 05:19:37;;;;;;;3.37;2.90;;;20.80;99.90;;;;;;4190541;28;20206;-80
2022/06/30 05:21:38;;;;;;;3.07;2.80;;;20.80;99.90;;;;;;4176367;28;20237;-80
2022/06/30 05:26:28;;;;;;;3.17;2.63;;;20.80;99.90;;;;;;4185373;28;20226;-80
2022/06/30 05:28:38;;;;;;;7.10;3.40;;;20.80;99.90;;;;;;4115729;28;20205;-74
2022/06/30 05:30:41;;;;;;;5.10;3.90;;;20.80;99.90;;;;;;4117277;28;20336;-77
2022/06/30 05:32:43;;;;;;;6.10;3.93;;;20.80;99.90;;;;;;4131779;28;20232;-77
2022/06/30 05:34:45;;;;;;;4.40;3.80;;;20.90;99.90;;;;;;4163741;28;20215;-78
2022/06/30 05:36:47;;;;;;;5.07;4.00;;;20.90;99.90;;;;;;4170299;28;20221;-78
2022/06/30 05:38:50;;;;;;;4.43;3.83;;;20.90;99.90;;;;;;4184943;28;20548;-79
2022/06/30 05:40:52;;;;;;;6.13;4.00;;;20.90;99.90;;;;;;4184404;28;20245;-80
2022/06/30 05:42:54;;;;;;;5.27;3.87;;;20.90;99.90;;;;;;4188068;28;20313;-80
2022/06/30 05:44:56;;;;;;;4.40;3.50;;;20.90;99.90;;;;;;4183002;28;20205;-79
2022/06/30 05:46:58;;;;;;;5.40;4.10;;;20.90;99.90;;;;;;4183985;28;20229;-79
2022/06/30 05:49:00;;;;;;;4.50;3.90;;;21.00;99.90;;;;;;4186019;28;20584;-80
2022/06/30 05:51:02;;;;;;;5.13;3.70;;;21.00;99.90;;;;;;4183789;28;20675;-80
2022/06/30 05:53:04;;;;;;;4.33;3.87;;;21.00;99.90;;;;;;4182539;28;20293;-80
2022/06/30 05:55:08;;;;;;;7.57;5.10;;;21.00;99.90;;;;;;4179002;28;20206;-80
2022/06/30 05:57:10;;;;;;;6.20;4.80;;;21.10;99.90;;;;;;4177307;28;20206;-83
2022/06/30 05:59:12;;;;;;;7.77;5.33;;;21.10;99.90;;;;;;4177118;28;20631;-80
2022/06/30 06:01:14;;;;;;;9.10;5.40;;;21.10;99.90;;;;;;4176777;28;20239;-80
2022/06/30 06:03:17;;;;;;;8.77;5.30;;;21.10;99.90;;;;;;4162335;28;20266;-81
2022/06/30 06:05:19;;;;;;;5.77;4.87;;;21.10;99.90;;;;;;4177461;28;20205;-82
2022/06/30 06:07:21;;;;;;;6.77;5.03;;;21.10;99.90;;;;;;4180518;28;20674;-80
2022/06/30 06:09:23;;;;;;;6.27;4.90;;;21.10;99.90;;;;;;4181356;28;20299;-81
2022/06/30 06:11:26;;;;;;;9.13;5.40;;;21.10;99.90;;;;;;4180381;28;20312;-80
2022/06/30 06:13:28;;;;;;;7.03;5.43;;;21.10;99.90;;;;;;4179244;28;20297;-80
2022/06/30 06:15:30;;;;;;;8.47;6.17;;;21.10;99.90;;;;;;4183516;28;20570;-78
2022/06/30 06:17:40;;;;;;;7.67;5.80;;;21.10;99.90;;;;;;4163158;28;20329;-79
2022/06/30 06:19:42;;;;;;;8.20;5.70;;;21.10;99.90;;;;;;4161502;28;20625;-79
2022/06/30 06:21:43;;;;;;;7.73;5.77;;;21.20;99.90;;;;;;4177410;28;20226;-79
2022/06/30 06:23:45;;;;;;;10.23;6.17;;;21.20;99.90;;;;;;4177626;28;20719;-78
2022/06/30 06:25:47;;;;;;;7.63;5.80;;;21.10;99.90;;;;;;4176883;28;20206;-79
2022/06/30 06:30:09;;;;;;;8.87;5.90;;;21.20;99.90;;;;;;4155877;28;20752;-78
2022/06/30 06:32:11;;;;;;;9.53;6.53;;;21.20;99.90;;;;;;4181805;28;20321;-79
2022/06/30 06:34:13;;;;;;;8.97;6.23;;;21.30;99.90;;;;;;4185394;28;20702;-79
2022/06/30 06:36:15;;;;;;;8.20;5.97;;;21.30;99.90;;;;;;4164348;28;20234;-79
2022/06/30 06:38:17;;;;;;;8.30;6.03;;;21.30;99.90;;;;;;4165572;28;20241;-80
2022/06/30 06:40:19;;;;;;;8.33;6.00;;;21.40;99.90;;;;;;4183630;28;20238;-78
2022/06/30 06:42:21;;;;;;;8.47;6.53;;;21.40;99.90;;;;;;4166662;28;20198;-80
2022/06/30 06:44:25;;;;;;;9.33;6.53;;;21.40;99.90;;;;;;4162526;28;20803;-79
2022/06/30 06:46:29;;;;;;;9.33;6.60;;;21.50;99.90;;;;;;4185775;28;20210;-79
2022/06/30 06:48:31;;;;;;;9.23;6.47;;;21.50;99.90;;;;;;4178708;28;20211;-79
2022/06/30 06:50:33;;;;;;;8.67;6.37;;;21.50;99.90;;;;;;4179965;28;20258;-80
2022/06/30 06:52:35;;;;;;;11.60;7.87;;;21.60;99.90;;;;;;4183100;28;20275;-80
2022/06/30 06:54:37;;;;;;;10.43;7.03;;;21.60;99.90;;;;;;4182677;28;20294;-79
2022/06/30 06:56:39;;;;;;;10.50;7.10;;;21.60;99.90;;;;;;4182164;28;20202;-79
2022/06/30 06:58:41;;;;;;;9.83;6.67;;;21.60;99.90;;;;;;4161706;28;20243;-80
2022/06/30 07:00:44;;;;;;;9.10;6.63;;;21.60;99.90;;;;;;4182325;28;20271;-79
2022/06/30 07:02:46;;;;;;;11.37;7.37;;;21.70;99.90;;;;;;4185496;28;20242;-79
2022/06/30 07:04:48;;;;;;;9.10;6.77;;;21.70;99.90;;;;;;4165561;28;20261;-77
2022/06/30 07:06:50;;;;;;;12.73;8.67;;;21.70;99.90;;;;;;4181015;28;20237;-79
2022/06/30 07:08:52;;;;;;;11.07;8.43;;;21.80;99.90;;;;;;4166365;28;20228;-77
2022/06/30 07:10:56;;;;;;;10.23;7.17;;;21.80;99.90;;;;;;4182023;28;20260;-79
2022/06/30 07:12:58;;;;;;;10.53;7.20;;;21.90;99.90;;;;;;4167900;28;20220;-79
2022/06/30 07:15:00;;;;;;;10.60;7.37;;;22.00;99.90;;;;;;4173936;28;20755;-78
2022/06/30 07:17:04;;;;;;;9.63;6.80;;;22.00;99.90;;;;;;4175384;28;20216;-79
2022/06/30 07:19:06;;;;;;;9.67;6.67;;;22.10;99.90;;;;;;4183757;28;20210;-79
2022/06/30 07:21:08;;;;;;;9.83;7.60;;;22.20;99.90;;;;;;4170654;28;20707;-79
2022/06/30 07:23:10;;;;;;;11.20;8.47;;;22.20;99.90;;;;;;4180141;28;20277;-78
2022/06/30 07:25:12;;;;;;;14.13;9.10;;;22.30;99.90;;;;;;4183154;28;20715;-79
2022/06/30 07:27:14;;;;;;;12.63;8.10;;;22.30;99.90;;;;;;4178685;28;20585;-80
2022/06/30 07:29:16;;;;;;;10.03;7.40;;;22.40;99.90;;;;;;4180377;28;20246;-78
2022/06/30 07:31:20;;;;;;;13.23;7.80;;;22.40;99.90;;;;;;4259196;22;20302;-77
2022/06/30 07:33:24;;;;;;;10.70;7.50;;;22.50;99.90;;;;;;4119303;28;20309;-76
2022/06/30 07:35:26;;;;;;;12.97;7.70;;;22.50;99.90;;;;;;4123841;28;20217;-76
2022/06/30 07:37:27;;;;;;;11.07;7.40;;;22.60;99.90;;;;;;4142395;28;20316;-76
2022/06/30 07:39:29;;;;;;;11.37;8.30;;;22.60;99.90;;;;;;4121757;28;20294;-76
2022/06/30 07:41:32;;;;;;;10.77;7.50;;;22.70;99.90;;;;;;4145025;28;20253;-77
2022/06/30 07:43:34;;;;;;;10.47;7.83;;;22.90;99.90;;;;;;4144722;28;20568;-76
2022/06/30 07:45:39;;;;;;;10.93;7.97;;;22.90;99.90;;;;;;4145175;28;20209;-76
2022/06/30 07:47:46;;;;;;;11.83;8.23;;;23.00;99.90;;;;;;4142825;28;20234;-77
2022/06/30 07:49:50;;;;;;;10.77;7.47;;;23.20;99.90;;;;;;4136762;28;20204;-77
2022/06/30 07:51:54;;;;;;;13.27;8.20;;;23.30;99.90;;;;;;4123505;28;20289;-76
2022/06/30 07:53:56;;;;;;;11.03;7.23;;;23.40;99.90;;;;;;4144680;28;20206;-77
2022/06/30 07:55:58;;;;;;;12.20;7.93;;;23.50;99.90;;;;;;4141191;28;20207;-77
2022/06/30 07:58:00;;;;;;;10.67;7.77;;;23.60;99.90;;;;;;4143510;28;20204;-77
2022/06/30 08:00:02;;;;;;;12.93;9.10;;;23.70;99.90;;;;;;4141447;28;20203;-77
2022/06/30 08:02:04;;;;;;;10.70;7.93;;;23.80;99.90;;;;;;4126862;28;20831;-77
2022/06/30 08:04:06;;;;;;;11.10;7.87;;;23.90;99.90;;;;;;4142358;28;20230;-77
2022/06/30 08:06:10;;;;;;;13.00;8.23;;;24.00;99.90;;;;;;4140056;28;20299;-76
2022/06/30 08:08:12;;;;;;;12.87;8.47;;;24.10;99.90;;;;;;4140560;28;20212;-76
2022/06/30 08:10:14;;;;;;;11.93;8.57;;;24.10;99.90;;;;;;4139582;28;20303;-77
2022/06/30 08:12:16;;;;;;;11.03;7.83;;;24.20;99.90;;;;;;4144612;28;20224;-76
2022/06/30 08:14:18;;;;;;;10.10;7.60;;;24.20;99.90;;;;;;4142160;28;20234;-77
2022/06/30 08:16:23;;;;;;;11.00;8.03;;;24.20;99.90;;;;;;4121622;28;20208;-76
2022/06/30 08:18:24;;;;;;;12.27;8.23;;;24.30;99.90;;;;;;4126417;28;20248;-77
2022/06/30 08:20:26;;;;;;;10.90;8.10;;;24.20;99.90;;;;;;4142806;28;20583;-77
2022/06/30 08:22:30;;;;;;;10.40;8.13;;;24.20;99.90;;;;;;4125484;28;20319;-77
2022/06/30 08:24:31;;;;;;;12.00;8.33;;;24.20;99.90;;;;;;4142455;28;20774;-77
2022/06/30 08:26:33;;;;;;;13.70;8.70;;;24.20;99.90;;;;;;4127313;28;20220;-77
2022/06/30 08:28:35;;;;;;;11.20;8.37;;;24.30;99.90;;;;;;4144210;28;20242;-76
2022/06/30 08:30:37;;;;;;;12.57;9.10;;;24.30;99.90;;;;;;4123904;28;20219;-76
2022/06/30 08:32:40;;;;;;;10.97;8.30;;;24.30;99.90;;;;;;4123852;28;20311;-76
2022/06/30 08:34:44;;;;;;;15.47;9.60;;;24.30;99.90;;;;;;4120976;28;20244;-76
2022/06/30 08:36:46;;;;;;;13.23;9.70;;;24.30;99.90;;;;;;4140731;28;20208;-76
2022/06/30 08:38:49;;;;;;;13.10;9.40;;;24.30;99.90;;;;;;4141634;28;20269;-76
2022/06/30 08:43:11;;;;;;;12.33;9.13;;;24.30;99.90;;;;;;4143468;28;20291;-76
2022/06/30 08:45:14;;;;;;;12.87;8.90;;;24.30;99.90;;;;;;4142829;28;20235;-77
2022/06/30 08:47:16;;;;;;;13.60;9.57;;;24.20;99.90;;;;;;4142490;28;20701;-77
2022/06/30 08:49:21;;;;;;;13.50;9.07;;;24.30;99.90;;;;;;4143300;28;20208;-77
2022/06/30 08:51:23;;;;;;;15.47;9.73;;;24.30;99.90;;;;;;4143056;28;20681;-76
2022/06/30 08:53:30;;;;;;;13.33;9.20;;;24.30;99.90;;;;;;4143171;28;20208;-76
2022/06/30 08:55:33;;;;;;;14.33;9.90;;;24.30;99.90;;;;;;4143151;28;20728;-77
2022/06/30 08:57:36;;;;;;;11.90;9.40;;;24.30;99.90;;;;;;4142243;28;20211;-77
2022/06/30 08:59:39;;;;;;;14.70;9.37;;;24.30;99.90;;;;;;4142660;28;20209;-77
2022/06/30 09:01:41;;;;;;;16.30;10.90;;;24.40;99.90;;;;;;4142110;28;20220;-77
2022/06/30 09:03:43;;;;;;;16.73;10.27;;;24.50;99.90;;;;;;4143000;28;20252;-77
2022/06/30 09:05:46;;;;;;;15.67;10.73;;;24.50;99.90;;;;;;4139594;28;20216;-76
2022/06/30 09:07:48;;;;;;;13.47;10.00;;;24.50;99.90;;;;;;4125067;28;20209;-77
2022/06/30 09:09:50;;;;;;;15.83;11.00;;;24.50;99.90;;;;;;4140434;28;20617;-77
2022/06/30 09:11:57;;;;;;;12.77;9.70;;;24.50;99.90;;;;;;4124300;28;20259;-76
2022/06/30 09:14:00;;;;;;;15.87;10.57;;;24.50;99.90;;;;;;4122898;28;20763;-77
2022/06/30 09:16:02;;;;;;;15.67;11.00;;;24.50;99.90;;;;;;4140671;28;20211;-76
2022/06/30 09:18:06;;;;;;;13.67;10.43;;;24.50;99.90;;;;;;4140506;28;20270;-76
2022/06/30 09:20:20;;;;;;;15.07;10.73;;;24.60;99.90;;;;;;4143105;28;20224;-76
2022/06/30 09:22:24;;;;;;;19.20;11.33;;;24.60;99.90;;;;;;4142405;28;20608;-75
2022/06/30 09:24:26;;;;;;;14.87;10.40;;;24.60;99.90;;;;;;4141816;28;20255;-75
2022/06/30 09:26:28;;;;;;;14.87;10.23;;;24.70;99.90;;;;;;4138402;28;20849;-75
2022/06/30 09:28:42;;;;;;;16.00;10.87;;;24.80;99.90;;;;;;4140514;28;20295;-75
2022/06/30 09:30:45;;;;;;;13.17;10.30;;;24.80;99.90;;;;;;4142108;28;20286;-75
2022/06/30 09:32:48;;;;;;;16.70;10.93;;;24.90;99.90;;;;;;4141269;28;20299;-75
2022/06/30 09:34:54;;;;;;;13.77;10.80;;;24.90;99.90;;;;;;4141277;28;20239;-75
2022/06/30 09:36:56;;;;;;;12.90;9.93;;;24.90;99.90;;;;;;4143058;28;20749;-75
2022/06/30 09:39:02;;;;;;;16.97;11.40;;;25.00;99.90;;;;;;4140659;28;20212;-75
2022/06/30 09:41:06;;;;;;;14.80;11.20;;;25.00;99.90;;;;;;4122250;28;20244;-75
2022/06/30 09:43:10;;;;;;;16.53;11.13;;;25.00;99.90;;;;;;4143430;28;20235;-75
2022/06/30 09:45:15;;;;;;;13.87;10.60;;;25.10;99.90;;;;;;4141088;28;20294;-76
2022/06/30 09:47:17;;;;;;;15.47;11.00;;;25.10;99.90;;;;;;4135529;28;20220;-77
2022/06/30 09:49:29;;;;;;;15.30;10.83;;;25.20;99.90;;;;;;4139519;28;20653;-75
2022/06/30 09:51:31;;;;;;;15.53;11.67;;;25.20;99.90;;;;;;4122143;28;20709;-75
2022/06/30 09:53:33;;;;;;;13.30;10.00;;;25.30;99.90;;;;;;4122972;28;20856;-75
2022/06/30 09:55:43;;;;;;;14.10;10.57;;;25.40;99.90;;;;;;4142504;28;20318;-76
2022/06/30 09:57:45;;;;;;;12.93;9.90;;;25.40;99.90;;;;;;4138319;28;20291;-76
2022/06/30 09:59:57;;;;;;;12.03;9.80;;;25.50;99.90;;;;;;4140249;28;20291;-75
2022/06/30 10:02:01;;;;;;;15.90;10.47;;;25.60;99.90;;;;;;4124214;28;20228;-75
2022/06/30 10:04:05;;;;;;;15.57;11.00;;;25.70;99.90;;;;;;4140160;28;20266;-75
2022/06/30 10:06:12;;;;;;;13.87;10.20;;;25.80;99.90;;;;;;4141247;28;20212;-75
2022/06/30 10:08:15;;;;;;;14.27;10.43;;;25.90;99.90;;;;;;4139035;28;20290;-75
2022/06/30 10:10:19;;;;;;;12.50;9.87;;;26.00;99.90;;;;;;4139640;28;20598;-76
2022/06/30 10:12:24;;;;;;;12.37;9.63;;;26.20;99.90;;;;;;4140624;28;20315;-75
2022/06/30 10:14:31;;;;;;;14.13;10.53;;;26.30;99.90;;;;;;4128252;28;20677;-75
2022/06/30 10:16:33;;;;;;;14.00;10.50;;;26.50;99.90;;;;;;4125261;28;20239;-76
2022/06/30 10:18:39;;;;;;;15.30;10.80;;;26.50;99.90;;;;;;4141917;28;20294;-76
2022/06/30 10:20:50;;;;;;;15.97;11.20;;;26.60;99.90;;;;;;4182108;28;20592;-75
2022/06/30 10:22:52;;;;;;;14.13;10.97;;;26.80;99.90;;;;;;4172012;27;20214;-75
2022/06/30 10:24:55;;;;;;;14.00;11.03;;;26.80;99.30;;;;;;4167646;28;20956;-77
2022/06/30 10:27:13;;;;;;;14.33;10.70;;;26.90;99.10;;;;;;4166418;27;20270;-77
2022/06/30 10:29:15;;;;;;;16.27;11.03;;;27.10;99.10;;;;;;4168418;28;20290;-77
2022/06/30 10:33:26;;;;;;;15.33;11.20;;;27.30;96.80;;;;;;4188359;28;20218;-79
2022/06/30 10:35:34;;;;;;;14.83;11.50;;;27.40;96.10;;;;;;4188664;28;20205;-79
2022/06/30 10:37:43;;;;;;;14.00;10.20;;;27.50;95.10;;;;;;4187605;28;20225;-79
2022/06/30 10:39:51;;;;;;;14.57;10.93;;;27.50;95.10;;;;;;4189470;28;20655;-79
2022/06/30 10:41:53;;;;;;;13.53;10.73;;;27.50;95.60;;;;;;4187666;28;20221;-79
2022/06/30 10:44:15;;;;;;;13.43;10.70;;;27.60;95.70;;;;;;4187220;28;20215;-79
2022/06/30 10:46:17;;;;;;;14.50;10.93;;;27.60;95.60;;;;;;4188935;28;20198;-79
2022/06/30 10:48:19;;;;;;;12.67;10.23;;;27.70;95.50;;;;;;4186959;28;20615;-79
2022/06/30 10:50:31;;;;;;;13.00;10.63;;;27.80;95.30;;;;;;4187762;28;20216;-79
2022/06/30 10:52:34;;;;;;;15.30;11.63;;;27.90;95.00;;;;;;4187771;28;20795;-79
2022/06/30 10:54:44;;;;;;;18.30;12.20;;;27.90;94.10;;;;;;4190575;28;20251;-79
2022/06/30 10:56:56;;;;;;;17.13;12.40;;;28.00;94.20;;;;;;4186696;28;20209;-79
2022/06/30 10:59:10;;;;;;;15.33;12.07;;;28.00;93.60;;;;;;4186752;28;20210;-79
2022/06/30 11:01:12;;;;;;;14.23;12.00;;;28.10;93.80;;;;;;4189189;28;20226;-79
2022/06/30 11:04:00;;;;;;;16.40;12.17;;;28.20;93.70;;;;;;4185996;28;20611;-79
2022/06/30 11:06:05;;;;;;;15.60;12.10;;;28.30;92.40;;;;;;4188342;28;20214;-79
2022/06/30 11:08:48;;;;;;;15.90;11.23;;;28.50;91.10;;;;;;4188499;28;20644;-79
2022/06/30 11:10:51;;;;;;;14.50;11.40;;;28.70;90.30;;;;;;4186763;28;20566;-79
2022/06/30 11:12:58;;;;;;;12.83;10.80;;;28.70;89.00;;;;;;4187915;28;20640;-79
2022/06/30 11:15:01;;;;;;;13.57;11.23;;;28.80;88.00;;;;;;4190166;28;20214;-78
2022/06/30 11:17:14;;;;;;;16.00;12.20;;;29.00;87.20;;;;;;4188958;28;20638;-78
2022/06/30 11:19:21;;;;;;;14.70;11.43;;;29.00;86.20;;;;;;4189115;28;20231;-78
2022/06/30 11:21:23;;;;;;;13.60;10.98;;;29.00;86.20;;;;;;4204586;28;20739;-79
2022/06/30 11:23:25;;;;;;;14.10;11.80;;;29.10;83.80;;;;;;4187952;28;20229;-79
2022/06/30 11:27:51;;;;;;;13.90;10.20;;;29.30;82.30;;;;;;4188104;28;20451;-79
2022/06/30 11:29:58;;;;;;;13.30;11.18;;;29.40;82.30;;;;;;4188458;28;20289;-79
2022/06/30 11:32:02;;;;;;;13.82;10.95;;;29.50;83.50;;;;;;4174200;28;20715;-79
2022/06/30 11:34:08;;;;;;;13.45;10.52;;;29.70;79.30;;;;;;4176391;28;20557;-79
2022/06/30 11:36:09;;;;;;;12.82;10.63;;;29.90;77.30;;;;;;4176103;28;20198;-79
2022/06/30 11:38:12;;;;;;;15.38;11.07;;;30.00;76.30;;;;;;4176975;28;20289;-79
2022/06/30 11:40:17;;;;;;;14.32;10.65;;;30.20;73.60;;;;;;4175999;28;20222;-79
2022/06/30 11:42:19;;;;;;;13.75;11.15;;;30.40;70.50;;;;;;4174802;28;20230;-79
2022/06/30 11:44:23;;;;;;;13.02;10.80;;;30.60;68.20;;;;;;4176216;28;20206;-79
2022/06/30 11:46:24;;;;;;;14.90;11.15;;;30.80;66.70;;;;;;4178686;28;20202;-79